Time;durP1;ratioP1;P1;durP2;ratioP2;P2;SDS_P1;SDS_P2;PMS_P1;PMS_P2;Temp;Humidity;BMP_temperature;BMP_pressure;BME280_temperature;BME280_humidity;BME280_pressure;Samples;Min_cycle;Max_cycle;Signal;HPM_P1;HPM_P2
2023/01/29 00:00:16;;;;;;;16.10;11.45;;;5.60;99.90;;;;;;4997258;28;20034;-77
2023/01/29 00:02:43;;;;;;;18.27;12.85;;;5.60;99.90;;;;;;4995747;28;20041;-79
2023/01/29 00:05:10;;;;;;;18.67;13.15;;;5.60;99.90;;;;;;5013726;28;20349;-79
2023/01/29 00:07:52;;;;;;;18.20;13.38;;;5.60;99.90;;;;;;4999353;28;20049;-79
2023/01/29 00:10:19;;;;;;;17.17;11.57;;;5.60;99.90;;;;;;4995801;28;20034;-78
2023/01/29 00:12:45;;;;;;;19.83;15.02;;;5.60;99.90;;;;;;5014138;28;20121;-78
2023/01/29 00:15:12;;;;;;;19.15;12.38;;;5.60;99.90;;;;;;4996612;28;20076;-78
2023/01/29 00:17:39;;;;;;;18.30;12.77;;;5.60;99.90;;;;;;5015664;28;20042;-79
2023/01/29 00:20:05;;;;;;;17.70;13.50;;;5.60;99.90;;;;;;5017673;28;20456;-78
2023/01/29 00:22:32;;;;;;;18.42;13.65;;;5.60;99.90;;;;;;5016577;28;20042;-78
2023/01/29 00:24:59;;;;;;;21.00;15.25;;;5.60;99.90;;;;;;5017320;28;20535;-78
2023/01/29 00:27:25;;;;;;;19.10;13.73;;;5.60;99.90;;;;;;5017299;28;20042;-77
2023/01/29 00:30:08;;;;;;;18.02;14.48;;;5.60;99.90;;;;;;4999013;28;20072;-78
2023/01/29 00:32:35;;;;;;;18.13;13.45;;;5.50;99.90;;;;;;5000038;28;20129;-78
2023/01/29 00:35:01;;;;;;;25.45;15.30;;;5.50;99.90;;;;;;4999916;28;20081;-79
2023/01/29 00:37:28;;;;;;;19.80;13.68;;;5.50;99.90;;;;;;5016131;28;20049;-78
2023/01/29 00:39:55;;;;;;;18.52;13.77;;;5.50;99.90;;;;;;5017238;28;20058;-77
2023/01/29 00:45:07;;;;;;;25.60;16.63;;;5.50;99.90;;;;;;5016713;28;20163;-78
2023/01/29 00:47:33;;;;;;;20.27;13.93;;;5.50;99.90;;;;;;4999886;28;20053;-79
2023/01/29 00:50:00;;;;;;;21.83;14.55;;;5.50;99.90;;;;;;4998593;28;20045;-78
2023/01/29 00:52:27;;;;;;;20.00;13.32;;;5.50;99.90;;;;;;4983610;28;20092;-78
2023/01/29 00:54:54;;;;;;;19.38;14.10;;;5.50;99.90;;;;;;5017111;28;20062;-79
2023/01/29 00:57:20;;;;;;;24.30;13.80;;;5.50;99.90;;;;;;5015865;28;20037;-79
2023/01/29 00:59:47;;;;;;;22.80;14.85;;;5.40;99.90;;;;;;5017014;28;20350;-79
2023/01/29 01:05:01;;;;;;;21.48;14.93;;;5.40;99.90;;;;;;5016519;28;20126;-78
2023/01/29 01:07:28;;;;;;;23.45;16.67;;;5.40;99.90;;;;;;4999801;28;20124;-78
2023/01/29 01:12:41;;;;;;;23.40;14.90;;;5.40;99.90;;;;;;5016783;28;20045;-78
2023/01/29 01:15:08;;;;;;;21.20;15.85;;;5.50;99.90;;;;;;5016046;28;20096;-77
2023/01/29 01:17:35;;;;;;;20.77;15.70;;;5.40;99.90;;;;;;5017472;28;20072;-78
2023/01/29 01:20:01;;;;;;;20.83;14.98;;;5.40;99.90;;;;;;4999218;28;20064;-77
2023/01/29 01:22:28;;;;;;;23.45;14.55;;;5.40;99.90;;;;;;4998470;28;20038;-78
2023/01/29 01:24:55;;;;;;;25.08;15.70;;;5.40;99.90;;;;;;4998823;28;20034;-78
2023/01/29 01:27:22;;;;;;;28.40;17.23;;;5.40;99.90;;;;;;5015754;28;20038;-78
2023/01/29 01:29:48;;;;;;;25.30;16.90;;;5.30;99.90;;;;;;4995807;28;20053;-79
2023/01/29 01:32:15;;;;;;;22.17;15.45;;;5.30;99.90;;;;;;4996427;28;20045;-78
2023/01/29 01:34:43;;;;;;;22.98;16.33;;;5.40;99.90;;;;;;4998487;28;20038;-78
2023/01/29 01:37:12;;;;;;;21.13;15.13;;;5.40;99.90;;;;;;4997994;28;20081;-77
2023/01/29 01:39:38;;;;;;;23.95;15.98;;;5.50;99.90;;;;;;4982777;28;20065;-78
2023/01/29 01:42:05;;;;;;;24.23;17.13;;;5.50;99.90;;;;;;4982712;28;20053;-77
2023/01/29 01:44:32;;;;;;;22.05;15.90;;;5.50;99.90;;;;;;5030452;28;20044;-79
2023/01/29 01:46:58;;;;;;;22.25;16.00;;;5.50;99.90;;;;;;5031459;28;20443;-78
2023/01/29 01:49:25;;;;;;;20.25;15.05;;;5.50;99.90;;;;;;4997907;28;20111;-78
2023/01/29 01:51:52;;;;;;;23.55;16.52;;;5.50;99.90;;;;;;4998825;28;20037;-78
2023/01/29 01:54:19;;;;;;;22.00;15.80;;;5.50;99.90;;;;;;5016024;28;20046;-77
2023/01/29 01:56:46;;;;;;;25.58;16.20;;;5.50;99.90;;;;;;4997493;28;20354;-78
2023/01/29 01:59:13;;;;;;;22.10;16.02;;;5.40;99.90;;;;;;4998645;28;20042;-77
2023/01/29 02:01:41;;;;;;;27.75;16.77;;;5.40;99.90;;;;;;5015872;28;20137;-77
2023/01/29 02:09:39;;;;;;;23.10;15.05;;;5.40;99.90;;;;;;5029967;28;20046;-76
2023/01/29 02:12:05;;;;;;;22.33;16.10;;;5.40;99.90;;;;;;4998419;28;20042;-77
2023/01/29 02:14:37;;;;;;;24.45;15.88;;;5.40;99.90;;;;;;5015645;28;20049;-77
2023/01/29 02:17:04;;;;;;;21.10;14.93;;;5.40;99.90;;;;;;4996854;28;20056;-79
2023/01/29 02:19:31;;;;;;;23.70;15.30;;;5.40;99.90;;;;;;5015382;28;20484;-78
2023/01/29 02:21:57;;;;;;;22.17;15.68;;;5.40;99.90;;;;;;5015559;28;20084;-79
2023/01/29 02:24:24;;;;;;;23.52;16.60;;;5.40;99.90;;;;;;4996967;28;20380;-77
2023/01/29 02:26:51;;;;;;;26.92;17.45;;;5.40;99.90;;;;;;5014871;28;20042;-77
2023/01/29 02:29:26;;;;;;;25.45;16.08;;;5.40;99.90;;;;;;4996866;28;20061;-78
2023/01/29 02:31:52;;;;;;;25.05;16.17;;;5.40;99.90;;;;;;4981802;28;20052;-77
2023/01/29 02:34:19;;;;;;;26.65;17.25;;;5.40;99.90;;;;;;4997865;28;20380;-78
2023/01/29 02:36:46;;;;;;;23.08;16.30;;;5.40;99.90;;;;;;4996439;28;20042;-78
2023/01/29 02:39:13;;;;;;;21.83;15.75;;;5.40;99.90;;;;;;4997492;28;20076;-77
2023/01/29 02:41:41;;;;;;;20.80;15.00;;;5.40;99.90;;;;;;4997903;28;20058;-77
2023/01/29 02:44:07;;;;;;;24.52;15.35;;;5.50;99.90;;;;;;4996742;28;20056;-78
2023/01/29 02:46:34;;;;;;;22.13;15.30;;;5.40;99.90;;;;;;5014973;28;20037;-78
2023/01/29 02:49:02;;;;;;;23.20;15.10;;;5.40;99.90;;;;;;4996502;28;20049;-79
2023/01/29 02:51:29;;;;;;;20.45;15.40;;;5.40;99.90;;;;;;5014984;28;20064;-79
2023/01/29 02:53:56;;;;;;;23.90;17.70;;;5.40;99.90;;;;;;4997645;28;20048;-77
2023/01/29 02:56:22;;;;;;;22.55;13.93;;;5.40;99.90;;;;;;5013623;28;20046;-78
2023/01/29 02:58:49;;;;;;;22.27;15.48;;;5.40;99.90;;;;;;4997834;28;20042;-78
2023/01/29 03:01:16;;;;;;;25.83;15.82;;;5.50;99.90;;;;;;4997368;28;20546;-79
2023/01/29 03:03:43;;;;;;;21.40;14.02;;;5.50;99.90;;;;;;4996405;28;20052;-77
2023/01/29 03:06:10;;;;;;;22.52;15.93;;;5.50;99.90;;;;;;4997710;28;20065;-77
2023/01/29 03:08:42;;;;;;;21.58;15.10;;;5.50;99.90;;;;;;4981287;28;20444;-78
2023/01/29 03:11:12;;;;;;;21.05;14.52;;;5.50;99.90;;;;;;5013942;28;20052;-77
2023/01/29 03:13:39;;;;;;;20.65;15.88;;;5.50;99.90;;;;;;4997315;28;20096;-77
2023/01/29 03:16:06;;;;;;;19.92;15.43;;;5.50;99.90;;;;;;4996140;28;20037;-77
2023/01/29 03:18:45;;;;;;;26.42;14.70;;;5.50;99.90;;;;;;5023355;28;20518;-77
2023/01/29 03:21:58;;;;;;;21.20;14.60;;;5.50;99.90;;;;;;5033449;28;20056;-78
2023/01/29 03:32:28;;;;;;;21.95;14.88;;;5.50;99.90;;;;;;5033220;28;20432;-79
2023/01/29 03:34:56;;;;;;;22.63;16.27;;;5.50;99.90;;;;;;5032890;28;20077;-77
2023/01/29 03:37:25;;;;;;;24.50;15.38;;;5.50;99.90;;;;;;5032266;28;20107;-78
2023/01/29 03:39:52;;;;;;;21.45;14.85;;;5.50;99.90;;;;;;5033335;28;20132;-79
2023/01/29 03:42:19;;;;;;;26.25;16.52;;;5.40;99.90;;;;;;5032202;28;20044;-78
2023/01/29 03:44:46;;;;;;;22.58;14.93;;;5.40;99.90;;;;;;5033649;28;20450;-78
2023/01/29 03:47:21;;;;;;;23.67;15.93;;;5.40;99.90;;;;;;5033242;28;20125;-79
2023/01/29 03:49:48;;;;;;;25.23;16.10;;;5.40;99.90;;;;;;5015584;28;20049;-79
2023/01/29 03:52:15;;;;;;;25.50;15.50;;;5.50;99.90;;;;;;5019046;28;20441;-78
2023/01/29 03:54:42;;;;;;;21.73;15.77;;;5.40;99.90;;;;;;5036682;28;20432;-77
2023/01/29 03:57:14;;;;;;;26.73;16.58;;;5.40;99.90;;;;;;5035756;28;20052;-77
2023/01/29 03:59:41;;;;;;;26.27;17.02;;;5.40;99.90;;;;;;5018314;28;20457;-79
2023/01/29 04:02:30;;;;;;;25.10;17.10;;;5.50;99.90;;;;;;5016826;28;20308;-78
2023/01/29 04:05:01;;;;;;;25.17;15.80;;;5.50;99.90;;;;;;5001036;28;20054;-79
2023/01/29 04:07:28;;;;;;;21.58;15.30;;;5.50;99.90;;;;;;5017112;28;20060;-78
2023/01/29 04:10:00;;;;;;;24.35;16.70;;;5.50;99.90;;;;;;5015820;28;20461;-79
2023/01/29 04:12:31;;;;;;;24.08;16.45;;;5.50;99.90;;;;;;5016863;28;20140;-78
2023/01/29 04:14:58;;;;;;;22.63;15.90;;;5.50;99.90;;;;;;5016321;28;20046;-78
2023/01/29 04:17:25;;;;;;;28.15;16.65;;;5.40;99.90;;;;;;5015666;28;20068;-78
2023/01/29 04:20:01;;;;;;;23.05;16.73;;;5.40;99.90;;;;;;5016786;28;20062;-80
2023/01/29 04:22:29;;;;;;;21.67;14.90;;;5.40;99.90;;;;;;4999611;28;20348;-78
2023/01/29 04:25:01;;;;;;;25.13;15.43;;;5.40;99.90;;;;;;5016206;28;20042;-78
2023/01/29 04:27:28;;;;;;;25.05;15.45;;;5.40;99.90;;;;;;5026914;28;20049;-78
2023/01/29 04:29:58;;;;;;;29.90;17.48;;;5.40;99.90;;;;;;5035245;28;20034;-78
2023/01/29 04:32:24;;;;;;;27.80;18.48;;;5.40;99.90;;;;;;5036309;28;20056;-78
2023/01/29 04:34:51;;;;;;;23.27;15.52;;;5.40;99.90;;;;;;5035813;28;20459;-78
2023/01/29 04:37:18;;;;;;;25.27;15.32;;;5.30;99.90;;;;;;5018790;28;20099;-78
2023/01/29 04:39:45;;;;;;;24.23;15.38;;;5.40;99.90;;;;;;5036179;28;20038;-78
2023/01/29 04:42:12;;;;;;;24.98;15.20;;;5.30;99.90;;;;;;5035849;28;20049;-78
2023/01/29 04:44:39;;;;;;;22.10;15.85;;;5.30;99.90;;;;;;5035687;28;20367;-78
2023/01/29 04:47:05;;;;;;;24.23;16.23;;;5.30;99.90;;;;;;5037093;28;20038;-79
2023/01/29 04:49:33;;;;;;;24.08;15.95;;;5.30;99.90;;;;;;5035679;28;20046;-79
2023/01/29 04:51:59;;;;;;;26.75;17.17;;;5.40;99.90;;;;;;5036906;28;20038;-79
2023/01/29 04:54:26;;;;;;;22.70;15.90;;;5.40;99.90;;;;;;5036991;28;20038;-78
2023/01/29 04:56:53;;;;;;;20.25;14.68;;;5.40;99.90;;;;;;5034585;28;20046;-79
2023/01/29 04:59:19;;;;;;;27.83;18.05;;;5.40;99.90;;;;;;5036703;28;20053;-79
2023/01/29 05:01:46;;;;;;;25.10;16.50;;;5.40;99.90;;;;;;5036613;28;20045;-78
2023/01/29 05:04:13;;;;;;;23.20;14.93;;;5.40;99.90;;;;;;5035396;28;20038;-79
2023/01/29 05:06:39;;;;;;;25.55;15.68;;;5.40;99.90;;;;;;5018849;28;20144;-79
2023/01/29 05:09:06;;;;;;;24.55;16.35;;;5.40;99.90;;;;;;5034406;28;20045;-78
2023/01/29 05:11:32;;;;;;;21.55;15.93;;;5.40;99.90;;;;;;5036690;28;20033;-77
2023/01/29 05:13:59;;;;;;;22.63;15.95;;;5.40;99.90;;;;;;5035817;28;20071;-78
2023/01/29 05:16:26;;;;;;;21.15;15.75;;;5.30;99.90;;;;;;5034943;28;20042;-78
2023/01/29 05:18:52;;;;;;;22.77;15.45;;;5.30;99.90;;;;;;5019995;28;20050;-78
2023/01/29 05:21:19;;;;;;;25.23;16.08;;;5.30;99.90;;;;;;5016529;28;20410;-77
2023/01/29 05:23:52;;;;;;;23.33;14.68;;;5.30;99.90;;;;;;5015504;28;20423;-78
2023/01/29 05:29:04;;;;;;;20.90;15.27;;;5.30;99.90;;;;;;5015338;28;20056;-78
2023/01/29 05:31:30;;;;;;;20.77;14.55;;;5.40;99.90;;;;;;4999106;28;20428;-78
2023/01/29 05:33:57;;;;;;;23.15;15.55;;;5.40;99.90;;;;;;4999069;28;20137;-76
2023/01/29 05:36:25;;;;;;;21.45;15.38;;;5.40;99.90;;;;;;5014825;28;20401;-78
2023/01/29 05:38:52;;;;;;;26.15;17.20;;;5.40;99.90;;;;;;4999066;28;20038;-78
2023/01/29 05:41:19;;;;;;;22.02;13.90;;;5.40;99.90;;;;;;5016230;28;20061;-78
2023/01/29 05:43:46;;;;;;;22.27;15.80;;;5.40;99.90;;;;;;4997820;28;20046;-78
2023/01/29 05:46:13;;;;;;;21.65;15.00;;;5.40;99.90;;;;;;5015743;28;20048;-78
2023/01/29 05:48:40;;;;;;;20.23;14.90;;;5.40;99.90;;;;;;4982594;28;20124;-78
2023/01/29 05:51:06;;;;;;;19.50;14.38;;;5.40;99.90;;;;;;4997692;28;20034;-78
2023/01/29 05:53:33;;;;;;;21.65;14.30;;;5.40;99.90;;;;;;5015909;28;20423;-78
2023/01/29 05:55:59;;;;;;;19.65;13.30;;;5.40;99.90;;;;;;4997446;28;20033;-78
2023/01/29 05:58:26;;;;;;;20.95;13.45;;;5.40;99.90;;;;;;4998650;28;20042;-78
2023/01/29 06:00:53;;;;;;;23.45;14.82;;;5.40;99.90;;;;;;5015954;28;20108;-78
2023/01/29 06:03:19;;;;;;;22.17;15.18;;;5.40;99.90;;;;;;5015036;28;20364;-78
2023/01/29 06:05:46;;;;;;;20.48;13.85;;;5.40;99.90;;;;;;5015377;28;20049;-78
2023/01/29 06:08:12;;;;;;;20.33;14.02;;;5.40;99.90;;;;;;5015576;28;20052;-78
2023/01/29 06:10:39;;;;;;;20.75;13.85;;;5.30;99.90;;;;;;5014168;28;20033;-78
2023/01/29 06:13:06;;;;;;;19.65;13.55;;;5.30;99.90;;;;;;5015519;28;20046;-78
2023/01/29 06:15:33;;;;;;;21.45;13.20;;;5.40;99.90;;;;;;5013461;28;20046;-78
2023/01/29 06:18:00;;;;;;;20.63;14.13;;;5.40;99.90;;;;;;5012373;28;20049;-78
2023/01/29 06:20:26;;;;;;;21.02;14.45;;;5.40;99.90;;;;;;5034090;28;20061;-79
2023/01/29 06:22:53;;;;;;;19.67;13.60;;;5.40;99.90;;;;;;5033311;28;20056;-78
2023/01/29 06:25:20;;;;;;;19.17;12.25;;;5.40;99.90;;;;;;5034586;28;20037;-78
2023/01/29 06:27:46;;;;;;;20.90;13.23;;;5.40;99.90;;;;;;5034837;28;20056;-78
2023/01/29 06:30:13;;;;;;;19.13;12.73;;;5.40;99.90;;;;;;5032795;28;20403;-77
2023/01/29 06:32:40;;;;;;;19.10;11.90;;;5.40;99.90;;;;;;5033889;28;20474;-77
2023/01/29 06:35:08;;;;;;;17.23;11.80;;;5.40;99.90;;;;;;5034404;28;20193;-77
2023/01/29 06:37:35;;;;;;;16.73;12.10;;;5.40;99.90;;;;;;5033859;28;20367;-78
2023/01/29 06:40:01;;;;;;;17.73;12.50;;;5.40;99.90;;;;;;5033636;28;20049;-77
2023/01/29 06:42:28;;;;;;;17.02;12.32;;;5.40;99.90;;;;;;5033831;28;20044;-78
2023/01/29 06:44:55;;;;;;;16.67;11.73;;;5.40;99.90;;;;;;5033338;28;20440;-78
2023/01/29 06:47:22;;;;;;;17.42;10.85;;;5.40;99.90;;;;;;5034762;28;20053;-78
2023/01/29 06:49:51;;;;;;;14.27;10.55;;;5.50;99.90;;;;;;5033607;28;20048;-78
2023/01/29 06:52:17;;;;;;;15.55;10.55;;;5.50;99.90;;;;;;5033561;28;20045;-78
2023/01/29 06:54:44;;;;;;;14.57;9.55;;;5.40;99.90;;;;;;5034468;28;20371;-78
2023/01/29 06:57:11;;;;;;;16.25;10.02;;;5.50;99.90;;;;;;5033587;28;20041;-78
2023/01/29 06:59:37;;;;;;;12.82;9.48;;;5.50;99.90;;;;;;5034730;28;20416;-78
2023/01/29 07:02:04;;;;;;;16.02;9.98;;;5.50;99.90;;;;;;5034617;28;20052;-78
2023/01/29 07:04:30;;;;;;;13.65;10.05;;;5.50;99.90;;;;;;5033061;28;20065;-77
2023/01/29 07:06:57;;;;;;;14.10;10.25;;;5.50;99.90;;;;;;5033531;28;20446;-79
2023/01/29 07:09:24;;;;;;;13.02;9.38;;;5.50;99.90;;;;;;5033453;28;20048;-78
2023/01/29 07:11:50;;;;;;;12.85;9.48;;;5.50;99.90;;;;;;5033678;28;20065;-79
2023/01/29 07:14:17;;;;;;;13.30;8.93;;;5.50;99.90;;;;;;5034386;28;20467;-79
2023/01/29 07:16:44;;;;;;;12.85;9.05;;;5.50;99.90;;;;;;5033035;28;20463;-78
2023/01/29 07:19:10;;;;;;;12.93;8.82;;;5.50;99.90;;;;;;5015741;28;20045;-78
2023/01/29 07:21:37;;;;;;;13.30;9.50;;;5.50;99.90;;;;;;4997214;28;20050;-78
2023/01/29 07:24:04;;;;;;;14.35;10.38;;;5.50;99.90;;;;;;4996440;28;20046;-77
2023/01/29 07:26:30;;;;;;;11.70;7.50;;;5.50;99.90;;;;;;5015183;28;20046;-78
2023/01/29 07:28:57;;;;;;;11.02;8.60;;;5.50;99.90;;;;;;5000223;28;20042;-78
2023/01/29 07:31:23;;;;;;;12.35;8.32;;;5.50;99.90;;;;;;5018517;28;20041;-78
2023/01/29 07:33:50;;;;;;;10.82;7.95;;;5.40;99.90;;;;;;5018569;28;20106;-77
2023/01/29 07:36:17;;;;;;;12.45;9.15;;;5.40;99.90;;;;;;5016989;28;20076;-78
2023/01/29 07:38:44;;;;;;;11.38;8.68;;;5.30;99.90;;;;;;5001369;28;20038;-78
2023/01/29 07:41:10;;;;;;;12.15;9.00;;;5.30;99.90;;;;;;5001026;28;20046;-77
2023/01/29 07:43:37;;;;;;;12.10;7.60;;;5.30;99.90;;;;;;5000029;28;20042;-78
2023/01/29 07:46:04;;;;;;;10.85;8.15;;;5.20;99.90;;;;;;5018089;28;20090;-78
2023/01/29 07:48:30;;;;;;;11.73;7.57;;;5.30;99.90;;;;;;5018306;28;20046;-78
2023/01/29 07:50:57;;;;;;;11.65;7.95;;;5.20;99.90;;;;;;5017083;28;20384;-77
2023/01/29 07:53:24;;;;;;;12.63;8.20;;;5.30;99.90;;;;;;5018130;28;20407;-79
2023/01/29 07:55:51;;;;;;;11.38;8.05;;;5.30;99.90;;;;;;5016793;28;20327;-78
2023/01/29 07:58:17;;;;;;;11.63;8.32;;;5.30;99.90;;;;;;5000990;28;20396;-77
2023/01/29 08:00:44;;;;;;;12.98;8.18;;;5.30;99.90;;;;;;5018122;28;20427;-78
2023/01/29 08:03:11;;;;;;;12.07;8.90;;;5.30;99.90;;;;;;5017676;28;20046;-78
2023/01/29 08:05:37;;;;;;;12.55;9.00;;;5.40;99.90;;;;;;5001059;28;20578;-80
2023/01/29 08:08:04;;;;;;;10.27;6.95;;;5.40;99.90;;;;;;5000871;28;20046;-76
2023/01/29 08:10:33;;;;;;;13.43;7.80;;;5.40;99.90;;;;;;5016235;28;20104;-77
2023/01/29 08:12:59;;;;;;;10.20;7.55;;;5.40;99.90;;;;;;5009301;28;20034;-77
2023/01/29 08:15:26;;;;;;;9.10;6.75;;;5.40;99.90;;;;;;5024372;28;20460;-77
2023/01/29 08:17:53;;;;;;;12.52;7.30;;;5.40;99.90;;;;;;5007591;28;20084;-77
2023/01/29 08:20:40;;;;;;;14.13;8.73;;;5.40;99.90;;;;;;5009435;28;20416;-76
2023/01/29 08:23:07;;;;;;;11.65;7.55;;;5.50;99.90;;;;;;5013787;28;20053;-77
2023/01/29 08:25:34;;;;;;;10.93;8.70;;;5.50;99.90;;;;;;4994963;28;20049;-77
2023/01/29 08:28:01;;;;;;;9.75;7.22;;;5.50;99.90;;;;;;5013831;28;20042;-77
2023/01/29 08:30:28;;;;;;;10.55;8.00;;;5.60;99.90;;;;;;5013301;28;20392;-76
2023/01/29 08:32:54;;;;;;;14.27;7.88;;;5.60;99.90;;;;;;4994871;28;20404;-76
2023/01/29 08:35:21;;;;;;;12.43;7.43;;;5.70;99.90;;;;;;5011590;28;20060;-77
2023/01/29 08:37:48;;;;;;;11.00;7.43;;;5.70;99.90;;;;;;4998032;28;20037;-77
2023/01/29 08:40:14;;;;;;;11.70;7.95;;;5.70;99.90;;;;;;4983650;28;20061;-78
2023/01/29 08:42:42;;;;;;;10.30;7.25;;;5.80;99.90;;;;;;5007258;28;20473;-77
2023/01/29 08:45:08;;;;;;;12.90;7.68;;;5.90;99.90;;;;;;4997171;28;20042;-76
2023/01/29 08:47:35;;;;;;;9.45;7.00;;;5.90;99.90;;;;;;4997594;28;20042;-77
2023/01/29 08:50:01;;;;;;;11.45;8.10;;;5.90;99.90;;;;;;4997097;28;20121;-77
2023/01/29 08:52:28;;;;;;;12.15;7.90;;;6.00;99.90;;;;;;4997897;28;20380;-77
2023/01/29 08:54:57;;;;;;;15.52;9.10;;;6.00;99.90;;;;;;4980588;28;20440;-77
2023/01/29 08:57:24;;;;;;;10.43;7.57;;;6.10;99.90;;;;;;4979629;28;20375;-76
2023/01/29 08:59:50;;;;;;;12.38;7.90;;;6.10;99.90;;;;;;4997736;28;20039;-77
2023/01/29 09:02:17;;;;;;;11.95;8.20;;;6.10;99.90;;;;;;4996741;28;20436;-76
2023/01/29 09:04:44;;;;;;;9.52;7.07;;;6.20;99.90;;;;;;4997129;28;20473;-77
2023/01/29 09:07:10;;;;;;;10.75;7.35;;;6.20;99.90;;;;;;4993479;28;20050;-77
2023/01/29 09:09:37;;;;;;;12.38;9.00;;;6.20;99.90;;;;;;5013249;28;20042;-79
2023/01/29 09:12:03;;;;;;;11.75;8.85;;;6.10;99.90;;;;;;5016468;28;20053;-78
2023/01/29 09:14:31;;;;;;;13.63;9.35;;;6.20;99.90;;;;;;5016185;28;20042;-77
2023/01/29 09:16:58;;;;;;;14.18;8.50;;;6.20;99.90;;;;;;4998462;28;20042;-77
2023/01/29 09:19:25;;;;;;;12.57;8.60;;;6.30;99.90;;;;;;5016584;28;20353;-79
2023/01/29 09:21:51;;;;;;;17.20;9.93;;;6.30;99.90;;;;;;4999624;28;20045;-78
2023/01/29 09:24:19;;;;;;;17.80;10.00;;;6.20;99.90;;;;;;4998439;28;20544;-78
2023/01/29 09:26:46;;;;;;;15.23;9.27;;;6.30;99.90;;;;;;4962101;28;20050;-78
2023/01/29 09:29:13;;;;;;;13.18;8.80;;;6.30;99.90;;;;;;5010077;28;20494;-78
2023/01/29 09:31:39;;;;;;;14.38;10.10;;;6.20;99.90;;;;;;5016062;28;20034;-78
2023/01/29 09:34:06;;;;;;;15.90;10.07;;;6.20;99.90;;;;;;5016051;28;20069;-78
2023/01/29 09:36:33;;;;;;;14.38;9.63;;;6.20;99.90;;;;;;4997985;28;20046;-77
2023/01/29 09:38:59;;;;;;;13.00;10.55;;;6.20;99.90;;;;;;4998815;28;20041;-76
2023/01/29 09:41:26;;;;;;;14.23;8.82;;;6.40;99.90;;;;;;4999035;28;20057;-78
2023/01/29 09:43:54;;;;;;;12.82;9.38;;;6.40;99.90;;;;;;5014858;28;20054;-78
2023/01/29 09:46:21;;;;;;;12.40;9.70;;;6.30;99.90;;;;;;5015599;28;20042;-79
2023/01/29 09:48:48;;;;;;;14.73;8.90;;;6.40;99.90;;;;;;4992380;28;20349;-79
2023/01/29 09:51:14;;;;;;;14.43;8.93;;;6.40;99.90;;;;;;4997067;28;20060;-78
2023/01/29 09:53:41;;;;;;;13.80;8.85;;;6.50;99.90;;;;;;4999970;28;20041;-80
2023/01/29 09:56:08;;;;;;;12.45;9.43;;;6.50;99.90;;;;;;4980395;28;20045;-79
2023/01/29 09:58:34;;;;;;;13.45;8.57;;;6.50;99.90;;;;;;5015551;28;20479;-79
2023/01/29 10:01:01;;;;;;;11.57;8.55;;;6.50;99.90;;;;;;5015793;28;20038;-78
2023/01/29 10:03:28;;;;;;;11.43;8.13;;;6.50;99.90;;;;;;4994555;28;20053;-80
2023/01/29 10:05:54;;;;;;;12.55;8.43;;;6.50;99.90;;;;;;4991859;28;20045;-80
2023/01/29 10:08:21;;;;;;;11.73;8.63;;;6.60;99.90;;;;;;4992489;28;20073;-80
2023/01/29 10:10:48;;;;;;;14.05;9.60;;;6.60;99.90;;;;;;4997232;28;20507;-80
2023/01/29 10:13:14;;;;;;;12.82;8.38;;;6.60;99.90;;;;;;4998252;28;20053;-80
2023/01/29 10:15:42;;;;;;;12.57;8.45;;;6.60;99.90;;;;;;4996869;28;20038;-80
2023/01/29 10:18:08;;;;;;;14.75;8.13;;;6.60;99.90;;;;;;5015220;28;20460;-81
2023/01/29 10:20:37;;;;;;;12.02;7.50;;;6.60;99.90;;;;;;4998055;28;20061;-80
2023/01/29 10:23:03;;;;;;;11.18;8.20;;;6.70;99.90;;;;;;5014523;28;20092;-81
2023/01/29 10:25:30;;;;;;;12.38;7.80;;;6.70;99.90;;;;;;4997742;28;20464;-79
2023/01/29 10:27:57;;;;;;;10.50;7.40;;;6.80;99.90;;;;;;4998229;28;20400;-79
2023/01/29 10:30:24;;;;;;;11.77;7.20;;;6.90;99.90;;;;;;5014527;28;20049;-79
2023/01/29 10:32:51;;;;;;;13.25;7.57;;;6.90;99.90;;;;;;4998170;28;20050;-79
2023/01/29 10:35:17;;;;;;;11.52;8.32;;;6.90;99.90;;;;;;5015261;28;20045;-80
2023/01/29 10:37:44;;;;;;;16.20;8.75;;;6.90;99.90;;;;;;5014261;28;20056;-83
2023/01/29 10:40:11;;;;;;;14.05;9.20;;;6.80;99.90;;;;;;4984448;28;20542;-79
2023/01/29 10:42:37;;;;;;;13.75;8.52;;;6.60;99.90;;;;;;5003091;28;20044;-79
2023/01/29 10:45:04;;;;;;;12.02;8.82;;;6.50;99.90;;;;;;5003877;28;20045;-80
2023/01/29 10:47:31;;;;;;;11.60;8.27;;;6.60;99.90;;;;;;5002944;28;20046;-79
2023/01/29 10:49:58;;;;;;;14.07;9.13;;;6.60;99.90;;;;;;4976966;28;20464;-79
2023/01/29 10:52:24;;;;;;;15.52;9.52;;;6.60;99.90;;;;;;4978554;28;20046;-79
2023/01/29 10:54:51;;;;;;;14.10;9.00;;;6.70;99.90;;;;;;4977861;28;20042;-80
2023/01/29 10:57:17;;;;;;;17.17;10.18;;;6.80;99.90;;;;;;4994301;28;20045;-79
2023/01/29 10:59:44;;;;;;;15.15;9.98;;;6.80;99.90;;;;;;4995162;28;20049;-79
2023/01/29 11:02:10;;;;;;;15.05;9.95;;;6.80;99.90;;;;;;4994686;28;20057;-79
2023/01/29 11:04:38;;;;;;;15.90;9.50;;;6.70;99.90;;;;;;4977882;28;20038;-79
2023/01/29 11:07:05;;;;;;;16.98;10.38;;;6.60;99.90;;;;;;4978337;28;20060;-79
2023/01/29 11:09:32;;;;;;;15.88;9.85;;;6.70;99.90;;;;;;4994098;28;20038;-79
2023/01/29 11:11:59;;;;;;;17.52;10.73;;;6.70;99.90;;;;;;4978134;28;20041;-78
2023/01/29 11:14:25;;;;;;;15.60;9.60;;;6.70;99.90;;;;;;4977480;28;20104;-78
2023/01/29 11:16:52;;;;;;;13.05;8.98;;;6.70;99.90;;;;;;4994011;28;20060;-79
2023/01/29 11:19:19;;;;;;;13.57;9.38;;;6.80;99.90;;;;;;4995005;28;20047;-78
2023/01/29 11:21:47;;;;;;;14.48;9.82;;;6.70;99.90;;;;;;4962124;28;20157;-80
2023/01/29 11:24:16;;;;;;;13.82;9.15;;;6.80;99.90;;;;;;4976610;28;20404;-78
2023/01/29 11:26:42;;;;;;;12.88;8.52;;;6.90;99.90;;;;;;4995018;28;20045;-79
2023/01/29 11:29:09;;;;;;;14.30;10.18;;;6.90;99.90;;;;;;4987313;28;20084;-79
2023/01/29 11:31:36;;;;;;;13.27;8.25;;;7.00;99.90;;;;;;5003563;28;20038;-80
2023/01/29 11:34:02;;;;;;;13.38;8.65;;;7.00;99.90;;;;;;4984626;28;20096;-80
2023/01/29 11:36:31;;;;;;;12.25;9.00;;;7.10;99.90;;;;;;4992943;28;20113;-79
2023/01/29 11:38:58;;;;;;;11.67;8.33;;;7.20;99.90;;;;;;4997318;28;20068;-80
2023/01/29 11:41:25;;;;;;;11.13;7.57;;;7.20;99.90;;;;;;5015063;28;20279;-80
2023/01/29 11:43:51;;;;;;;13.55;8.63;;;7.20;99.90;;;;;;5004130;28;20457;-80
2023/01/29 11:46:18;;;;;;;12.75;7.05;;;7.10;99.90;;;;;;5004012;28;20126;-79
2023/01/29 11:48:45;;;;;;;13.55;9.43;;;7.20;99.90;;;;;;5005064;28;20460;-80
2023/01/29 11:51:11;;;;;;;14.05;8.38;;;7.30;99.90;;;;;;5007022;28;20045;-79
2023/01/29 11:53:38;;;;;;;12.30;8.35;;;7.40;99.90;;;;;;5013929;28;20030;-78
2023/01/29 11:56:04;;;;;;;14.77;8.13;;;7.40;99.90;;;;;;5012496;28;20050;-79
2023/01/29 11:58:31;;;;;;;11.80;6.90;;;7.50;99.90;;;;;;5014386;28;20460;-79
2023/01/29 12:00:58;;;;;;;11.18;7.80;;;7.50;99.90;;;;;;5014213;28;20046;-79
2023/01/29 12:03:25;;;;;;;11.77;7.43;;;7.50;99.90;;;;;;5013195;28;20476;-78
2023/01/29 12:05:52;;;;;;;11.75;7.45;;;7.40;99.90;;;;;;5012945;28;20073;-79
2023/01/29 12:08:21;;;;;;;10.80;6.70;;;7.40;99.90;;;;;;5014251;28;20046;-79
2023/01/29 12:10:48;;;;;;;9.88;7.43;;;7.40;99.90;;;;;;5012347;28;20144;-79
2023/01/29 12:13:14;;;;;;;8.95;7.28;;;7.30;99.90;;;;;;5016098;28;20058;-79
2023/01/29 12:15:41;;;;;;;12.07;8.18;;;7.30;99.90;;;;;;5016472;28;20124;-80
2023/01/29 12:18:08;;;;;;;11.93;8.35;;;7.30;99.90;;;;;;5026586;28;20117;-80
2023/01/29 12:20:34;;;;;;;11.52;7.93;;;7.20;99.90;;;;;;5037464;28;20041;-79
2023/01/29 12:23:01;;;;;;;13.48;7.72;;;7.20;99.90;;;;;;5035500;28;20414;-77
2023/01/29 12:25:28;;;;;;;12.05;8.15;;;7.20;99.90;;;;;;5037078;28;20045;-80
2023/01/29 12:27:54;;;;;;;11.48;7.35;;;7.20;99.90;;;;;;5037067;28;20037;-77
2023/01/29 12:30:21;;;;;;;10.43;7.50;;;7.20;99.90;;;;;;5035234;28;20072;-79
2023/01/29 12:32:48;;;;;;;12.70;8.13;;;7.30;99.90;;;;;;5036342;28;20044;-77
2023/01/29 12:35:15;;;;;;;13.35;7.82;;;7.30;99.90;;;;;;5036095;28;20052;-81
2023/01/29 12:37:41;;;;;;;12.25;7.60;;;7.40;99.90;;;;;;5036166;28;20048;-79
2023/01/29 12:40:08;;;;;;;10.98;6.18;;;7.50;99.90;;;;;;5036211;28;20048;-78
2023/01/29 12:42:35;;;;;;;9.35;6.40;;;7.60;99.90;;;;;;5034986;28;20437;-79
2023/01/29 12:45:03;;;;;;;10.80;6.53;;;7.90;99.90;;;;;;5035726;28;20057;-78
2023/01/29 12:47:30;;;;;;;8.25;5.55;;;8.00;99.90;;;;;;5036472;28;20045;-80
2023/01/29 12:49:57;;;;;;;7.85;5.50;;;8.20;99.90;;;;;;5036108;28;20037;-80
2023/01/29 12:52:23;;;;;;;7.35;5.38;;;8.20;99.90;;;;;;5036510;28;20095;-77
2023/01/29 12:54:50;;;;;;;8.20;4.72;;;8.20;99.90;;;;;;5038558;28;20116;-77
2023/01/29 12:57:17;;;;;;;6.88;4.85;;;8.10;99.90;;;;;;5035161;28;20045;-77
2023/01/29 12:59:46;;;;;;;7.95;6.18;;;8.10;99.90;;;;;;5036789;28;20049;-77
2023/01/29 13:02:14;;;;;;;4.47;3.88;;;8.00;99.90;;;;;;5026927;28;20048;-77
2023/01/29 13:04:41;;;;;;;5.87;3.70;;;8.00;99.90;;;;;;5040192;28;20368;-79
2023/01/29 13:07:08;;;;;;;5.93;4.35;;;8.00;99.90;;;;;;5020655;28;20048;-77